Kezdőlap
METAR-TAF:

METAR-TAF

Repülőterek :

Vadsø, Norvégia

földrajzi szélesség: 70-04N, földrajzi hosszúság: 029-51E, magasság: 3 m

Jelenlegi meteorológiai megfigyelések

A jelentés 8 órával és 36 perccel ezelõtt készült, 04:50 UTC
Nyugati szél 6 kt
Hőmérséklet 9°C
Páratartalom 76%
Légköri nyomás 1003 hPa
Látótávolság 10 km, vagy több
felhőtlen 1500 m magasságban, és nincs gomolyfelhõ

METAR: ENVD 210450Z 28006KT CAVOK 09/05 Q1003

Idő: 15:26 (13:26 UTC)

Előrejelzés

A jelentés 8 órával és 26 perccel ezelõtt készült, 05:00 UTC
Az előrejelzés 21-én 06 óra UTC és 21-én 15 óra UTC között érvényes
Nyugati szél 9 kt
Látótávolság 10 km, vagy több
Kevés felhő 4000 lábon

TAF: ENVD 210500Z 2106/2115 28009KT 9999 FEW040

Meteorológiai megfigyelések és előrejelzések több, mint 4000 repülőtéren (METAR és TAF jelentéseket).

A térképen piros és sárga pontok jelzik az elérhető meteorológiai állomásokat.

Mozgassa az egeret a pont fölött, hogy megjelenjen az állomás neve.

Azután kattintson az időjárási megfigyelések és előrejelzések megtekintéséhez.

A térkép megváltoztatása: kattintson a fekete keresztel jelölt zöld gombra ráközelítéshez, a vonallal jelölt zöld gombra távolításhoz, vagy a zöld nyilakra a szomszédos térképek eléréséhez.


METAR-TAF: